createdAt,value
2018-10-11T00:19:50.068Z,32.48
2018-10-11T00:22:18.953Z,33.55
2018-10-11T00:24:48.415Z,33.35
2018-10-11T00:27:21.183Z,32.98
2018-10-11T00:30:00.923Z,34.20
2018-10-11T00:32:43.177Z,34.05
2018-10-11T00:42:17.847Z,34.15
2018-10-11T00:48:25.542Z,33.13
2018-10-11T01:01:07.023Z,34.35
2018-10-11T01:17:14.510Z,33.42
2018-10-11T01:20:04.270Z,34.15
2018-10-11T01:23:04.076Z,33.35
2018-10-11T01:25:32.617Z,35.58
2018-10-11T01:28:20.060Z,35.08
2018-10-11T01:30:55.627Z,34.88
2018-10-11T01:33:24.087Z,36.45
2018-10-11T01:35:52.428Z,39.63
2018-10-11T01:38:30.811Z,33.60
2018-10-11T01:41:00.352Z,36.23
2018-10-11T01:43:29.364Z,36.75
2018-10-11T01:46:01.970Z,36.60
2018-10-11T01:49:00.758Z,37.50
2018-10-11T01:51:40.548Z,38.75
2018-10-11T01:57:35.363Z,35.40
2018-10-11T03:49:26.368Z,38.90
2018-10-11T04:05:22.449Z,41.10
2018-10-11T04:08:12.024Z,43.73
2018-10-11T04:11:06.184Z,44.63
2018-10-11T04:16:43.993Z,42.23
2018-10-11T04:19:14.458Z,40.12
2018-10-11T04:21:44.517Z,40.60
2018-10-11T04:24:16.238Z,42.78
2018-10-11T04:26:52.126Z,38.58
2018-10-11T04:29:33.104Z,40.98
2018-10-11T04:32:12.163Z,42.67
2018-10-11T04:34:51.984Z,41.60
2018-10-11T04:37:29.920Z,40.75
2018-10-11T04:57:09.518Z,42.20
2018-10-11T04:59:39.206Z,43.55
2018-10-11T05:02:07.854Z,42.88
2018-10-11T05:04:43.492Z,41.95
2018-10-11T05:07:14.074Z,41.77
2018-10-11T05:10:01.116Z,39.73
2018-10-11T05:12:54.687Z,41.83
2018-10-11T05:15:24.445Z,42.55
2018-10-11T05:17:59.674Z,43.02
2018-10-11T05:20:52.777Z,44.73
2018-10-11T05:23:31.430Z,44.48
2018-10-11T05:26:19.590Z,39.53
2018-10-11T05:32:26.111Z,44.65
2018-10-11T05:38:08.419Z,42.27
2018-10-11T05:41:15.865Z,42.65
2018-10-11T05:57:19.293Z,44.05
2018-10-11T05:59:47.689Z,45.20
2018-10-11T06:02:16.112Z,48.42
2018-10-11T06:04:44.590Z,46.73
2018-10-11T06:07:12.966Z,45.23
2018-10-11T06:09:41.321Z,48.70
2018-10-11T06:14:47.792Z,42.83
2018-10-11T06:17:16.159Z,40.60
2018-10-11T06:19:44.486Z,43.85
2018-10-11T06:22:12.975Z,44.30
2018-10-11T06:24:41.382Z,43.73
2018-10-11T06:27:20.935Z,42.05
2018-10-11T06:29:49.271Z,42.73
2018-10-11T06:32:17.589Z,41.98
2018-10-11T06:34:45.815Z,40.90
2018-10-11T06:37:15.748Z,37.45
2018-10-11T06:39:43.977Z,43.38
2018-10-11T06:42:12.230Z,40.03
2018-10-11T06:44:40.504Z,40.28
2018-10-11T06:47:08.836Z,40.80
2018-10-11T06:49:37.129Z,38.42
2018-10-11T06:52:05.588Z,41.48
2018-10-11T06:54:37.451Z,38.63
2018-10-11T06:57:06.068Z,39.78
2018-10-11T06:59:34.369Z,39.88
2018-10-11T07:02:02.780Z,39.10
2018-10-11T07:04:31.054Z,38.55
2018-10-11T07:06:59.275Z,37.40
2018-10-11T07:09:27.510Z,38.30
2018-10-11T07:11:56.035Z,35.90
2018-10-11T07:14:24.338Z,35.98
2018-10-11T07:16:52.569Z,38.17
2018-10-11T07:19:20.838Z,38.10
2018-10-11T07:21:49.056Z,33.38
2018-10-11T07:24:17.310Z,36.85
2018-10-11T07:26:45.608Z,36.00
2018-10-11T07:29:16.154Z,37.38
2018-10-11T07:31:44.436Z,36.88
2018-10-11T07:34:12.736Z,36.93
2018-10-11T07:36:40.951Z,35.20
2018-10-11T07:39:10.587Z,37.60
2018-10-11T07:41:38.852Z,33.08
2018-10-11T07:44:07.889Z,33.55
2018-10-11T07:46:36.220Z,35.55
2018-10-11T07:49:05.413Z,34.35
2018-10-11T07:51:33.623Z,33.60
2018-10-11T07:54:02.643Z,33.48
2018-10-11T07:56:32.393Z,32.48
2018-10-11T07:59:01.307Z,32.13
2018-10-11T08:01:30.856Z,34.10
2018-10-11T08:03:59.608Z,31.12
2018-10-11T08:06:28.047Z,31.65
2018-10-11T08:08:56.364Z,30.85
2018-10-11T08:11:26.001Z,33.35
2018-10-11T08:13:54.436Z,30.70
2018-10-11T08:16:22.887Z,29.90
2018-10-11T08:18:51.550Z,31.87
2018-10-11T08:21:19.950Z,32.55
2018-10-11T08:23:48.282Z,32.40
2018-10-11T08:26:16.822Z,30.50
2018-10-11T08:28:45.091Z,31.35
2018-10-11T08:31:13.413Z,30.57
2018-10-11T08:33:41.653Z,31.77
2018-10-11T08:36:09.877Z,28.60
2018-10-11T08:38:38.172Z,30.52
2018-10-11T08:41:06.384Z,31.37
2018-10-11T08:43:34.600Z,29.67
2018-10-11T08:46:02.864Z,30.15
2018-10-11T08:48:31.099Z,28.73
2018-10-11T08:50:59.359Z,27.73
2018-10-11T08:53:27.635Z,28.45
2018-10-11T08:55:55.898Z,29.80
2018-10-11T08:58:24.073Z,29.98
2018-10-11T09:00:52.236Z,26.95
2018-10-11T09:03:20.530Z,27.58
2018-10-11T09:05:48.667Z,27.37
2018-10-11T09:08:16.893Z,27.25
2018-10-11T09:10:45.130Z,27.35
2018-10-11T09:13:13.334Z,28.75
2018-10-11T09:15:41.672Z,27.02
2018-10-11T09:18:09.726Z,28.20
2018-10-11T09:20:37.944Z,27.15
2018-10-11T09:23:06.358Z,26.27
2018-10-11T09:25:34.517Z,27.15
2018-10-11T09:28:02.854Z,27.85
2018-10-11T09:30:31.613Z,26.27
2018-10-11T09:32:59.708Z,26.10
2018-10-11T09:35:28.137Z,25.17
2018-10-11T09:37:56.450Z,25.45
2018-10-11T09:40:24.688Z,25.88
2018-10-11T09:42:52.901Z,26.40
2018-10-11T09:45:21.218Z,27.13
2018-10-11T09:47:49.418Z,25.17
2018-10-11T09:50:17.633Z,27.13
2018-10-11T09:52:45.980Z,26.27
2018-10-11T09:55:14.244Z,25.17
2018-10-11T09:57:42.521Z,23.52
2018-10-11T10:00:16.482Z,25.25
2018-10-11T10:02:45.984Z,23.75
2018-10-11T10:05:14.274Z,24.80
2018-10-11T10:07:42.501Z,26.48
2018-10-11T10:10:10.738Z,23.77
2018-10-11T10:12:39.040Z,24.95
2018-10-11T10:15:07.254Z,23.30
2018-10-11T10:17:35.877Z,24.82
2018-10-11T10:20:05.546Z,24.43
2018-10-11T10:22:34.130Z,22.37
2018-10-11T10:25:02.328Z,23.13
2018-10-11T10:27:30.558Z,23.20
2018-10-11T10:29:58.839Z,23.40
2018-10-11T10:32:27.060Z,22.40
2018-10-11T10:34:55.506Z,24.23
2018-10-11T10:37:23.760Z,23.05
2018-10-11T10:39:52.001Z,23.00
2018-10-11T10:42:20.237Z,21.40
2018-10-11T10:44:48.574Z,20.15
2018-10-11T10:47:16.775Z,21.57
2018-10-11T10:49:45.218Z,21.65
2018-10-11T10:52:13.545Z,21.40
2018-10-11T10:54:41.767Z,20.97
2018-10-11T10:57:10.314Z,22.53
2018-10-11T10:59:38.585Z,20.70
2018-10-11T11:02:06.989Z,19.20
2018-10-11T11:04:35.180Z,22.97
2018-10-11T11:07:03.432Z,19.43
2018-10-11T11:09:31.705Z,19.83
2018-10-11T11:11:59.917Z,20.47
2018-10-11T11:14:29.174Z,20.87
2018-10-11T11:16:57.742Z,21.97
2018-10-11T11:19:25.988Z,19.67
2018-10-11T11:21:54.785Z,19.93
2018-10-11T11:24:23.063Z,20.27
2018-10-11T11:26:51.342Z,19.77
2018-10-11T11:29:19.627Z,21.60
2018-10-11T11:31:47.875Z,18.87
2018-10-11T11:34:16.512Z,18.67
2018-10-11T11:36:44.807Z,19.60
2018-10-11T11:39:13.095Z,18.90
2018-10-11T11:41:41.413Z,18.40
2018-10-11T11:44:09.753Z,20.07
2018-10-11T11:46:37.997Z,19.97
2018-10-11T11:49:06.232Z,17.80
2018-10-11T11:51:34.635Z,19.77
2018-10-11T11:54:02.881Z,19.33
2018-10-11T11:56:31.080Z,19.10
2018-10-11T11:58:59.372Z,18.47
2018-10-11T12:01:27.645Z,18.50
2018-10-11T12:03:56.033Z,18.90
2018-10-11T12:06:27.917Z,18.70
2018-10-11T12:08:56.244Z,17.77
2018-10-11T12:11:24.593Z,18.17
2018-10-11T12:13:53.720Z,17.63
2018-10-11T12:16:22.366Z,18.27
2018-10-11T12:18:50.637Z,18.87
2018-10-11T12:21:18.889Z,17.47
2018-10-11T12:23:47.425Z,18.57
2018-10-11T12:26:15.673Z,17.90
2018-10-11T12:28:44.122Z,18.50
2018-10-11T12:31:12.264Z,17.03
2018-10-11T12:33:40.534Z,18.43
2018-10-11T12:36:08.769Z,18.90
2018-10-11T12:38:37.384Z,17.27
2018-10-11T12:41:05.637Z,19.13
2018-10-11T12:43:33.953Z,18.10
2018-10-11T12:46:02.240Z,18.80
2018-10-11T12:48:30.706Z,18.80
2018-10-11T12:50:58.982Z,17.77
2018-10-11T12:53:27.280Z,19.00
2018-10-11T12:55:55.613Z,18.53
2018-10-11T12:58:23.929Z,18.23
2018-10-11T13:00:52.220Z,18.17
2018-10-11T13:03:20.497Z,18.90
2018-10-11T13:05:48.721Z,18.60
2018-10-11T13:08:17.003Z,18.43
2018-10-11T13:10:45.270Z,17.90
2018-10-11T13:13:13.571Z,17.50
2018-10-11T13:15:42.222Z,17.27
2018-10-11T13:18:10.028Z,18.17
2018-10-11T13:20:38.240Z,17.13
2018-10-11T13:23:09.776Z,16.60
2018-10-11T13:25:34.745Z,16.93
2018-10-11T13:28:03.306Z,16.97
2018-10-11T13:30:31.536Z,17.10
2018-10-11T13:32:59.785Z,17.30
2018-10-11T13:35:28.024Z,16.47
2018-10-11T13:37:56.548Z,19.20
2018-10-11T13:40:24.812Z,17.10
2018-10-11T13:42:53.021Z,17.67
2018-10-11T13:45:21.890Z,18.20
2018-10-11T13:47:50.154Z,17.50
2018-10-11T13:50:18.558Z,19.00
2018-10-11T13:52:46.782Z,18.77
2018-10-11T13:55:15.799Z,17.97
2018-10-11T13:57:43.334Z,17.20
2018-10-11T14:00:11.611Z,17.30
2018-10-11T14:02:39.824Z,16.83
2018-10-11T14:05:08.120Z,17.53
2018-10-11T14:07:36.322Z,17.83
2018-10-11T14:10:04.524Z,17.40
2018-10-11T14:12:32.736Z,18.50
2018-10-11T14:15:00.940Z,18.10
2018-10-11T14:17:29.218Z,17.83
2018-10-11T14:19:57.362Z,17.83
2018-10-11T14:22:25.633Z,17.00
2018-10-11T14:24:53.893Z,18.03
2018-10-11T14:27:22.128Z,16.87
2018-10-11T14:29:50.374Z,15.97
2018-10-11T14:32:18.600Z,18.40
2018-10-11T14:34:46.875Z,17.67
2018-10-11T14:37:15.717Z,18.70
2018-10-11T14:39:43.913Z,17.60
2018-10-11T14:42:12.340Z,17.70
2018-10-11T14:44:40.526Z,17.27
2018-10-11T14:47:09.676Z,18.37
2018-10-11T14:49:37.969Z,17.30
2018-10-11T14:52:06.600Z,16.43
2018-10-11T14:54:35.333Z,15.60
2018-10-11T14:57:04.533Z,16.57
2018-10-11T14:59:33.465Z,16.57
2018-10-11T15:02:02.944Z,16.77
2018-10-11T15:04:31.479Z,17.33
2018-10-11T15:06:59.684Z,16.73
2018-10-11T15:09:27.914Z,17.23
2018-10-11T15:11:56.163Z,17.40
2018-10-11T15:14:24.627Z,16.43
2018-10-11T15:16:52.864Z,17.03
2018-10-11T15:19:21.149Z,16.50
2018-10-11T15:21:49.456Z,16.20
2018-10-11T15:24:17.672Z,15.70
2018-10-11T15:26:46.062Z,14.97
2018-10-11T15:29:14.337Z,15.63
2018-10-11T15:31:42.790Z,16.77
2018-10-11T15:34:11.045Z,14.93
2018-10-11T15:36:39.254Z,17.10
2018-10-11T15:39:09.075Z,15.90
2018-10-11T15:41:37.968Z,16.00
2018-10-11T15:44:10.852Z,15.67
2018-10-11T15:46:39.471Z,16.23
2018-10-11T15:49:08.359Z,15.43
2018-10-11T15:51:36.830Z,15.50
2018-10-11T15:54:06.308Z,16.00
2018-10-11T15:56:34.596Z,16.50
2018-10-11T15:59:03.059Z,15.67
2018-10-11T16:01:31.432Z,16.27
2018-10-11T16:03:59.785Z,15.90
2018-10-11T16:06:29.186Z,16.80
2018-10-11T16:08:57.774Z,16.77
2018-10-11T16:11:26.101Z,15.20
2018-10-11T16:13:54.902Z,16.30
2018-10-11T16:16:37.547Z,15.20
2018-10-11T16:23:02.899Z,15.23
2018-10-11T16:25:35.339Z,16.67
2018-10-11T16:30:51.312Z,16.50
2018-10-11T16:33:19.829Z,17.37
2018-10-11T16:35:48.212Z,16.77
2018-10-11T16:38:16.799Z,15.98
2018-10-11T16:40:45.041Z,16.10
2018-10-11T16:43:13.441Z,17.75
2018-10-11T17:06:31.470Z,18.57
2018-10-11T17:08:59.967Z,18.35
2018-10-11T17:11:28.381Z,18.85
2018-10-11T17:13:56.736Z,19.42
2018-10-11T17:16:25.254Z,19.37
2018-10-11T17:18:53.804Z,20.27
2018-10-11T17:21:22.059Z,19.73
2018-10-11T17:23:50.857Z,19.10
2018-10-11T17:26:19.177Z,19.55
2018-10-11T17:28:47.540Z,18.70
2018-10-11T17:31:15.950Z,19.30
2018-10-11T17:33:44.352Z,17.55
2018-10-11T17:36:12.708Z,18.40
2018-10-11T17:38:40.957Z,20.70
2018-10-11T17:41:09.218Z,19.35
2018-10-11T17:43:37.537Z,19.80
2018-10-11T17:46:06.071Z,18.70
2018-10-11T17:48:34.383Z,18.27
2018-10-11T17:51:02.805Z,19.77
2018-10-11T17:53:31.651Z,19.50
2018-10-11T17:56:01.235Z,18.37
2018-10-11T17:58:29.870Z,18.75
2018-10-11T18:00:59.754Z,18.90
2018-10-11T18:03:28.270Z,19.23
2018-10-11T18:05:56.905Z,18.87
2018-10-11T18:08:25.689Z,18.30
2018-10-11T18:11:00.512Z,18.80
2018-10-11T18:13:29.888Z,18.73
2018-10-11T18:16:00.224Z,18.20
2018-10-11T18:18:28.896Z,18.77
2018-10-11T18:20:57.283Z,18.27
2018-10-11T18:23:26.003Z,18.55
2018-10-11T18:25:55.048Z,16.90
2018-10-11T18:28:24.204Z,17.10
2018-10-11T18:30:52.791Z,17.50
2018-10-11T18:33:21.261Z,16.90
2018-10-11T18:35:49.688Z,18.17
2018-10-11T18:38:18.134Z,16.93
2018-10-11T18:40:46.512Z,17.37
2018-10-11T18:43:14.801Z,18.05
2018-10-11T18:45:43.245Z,15.83
2018-10-11T18:48:11.563Z,17.30
2018-10-11T18:50:39.813Z,17.37
2018-10-11T18:53:08.160Z,16.65
2018-10-11T18:55:36.490Z,18.77
2018-10-11T18:58:04.736Z,17.10
2018-10-11T19:00:32.990Z,18.40
2018-10-11T19:03:01.158Z,18.85
2018-10-11T19:05:29.381Z,18.35
2018-10-11T19:07:57.627Z,17.70
2018-10-11T19:10:25.787Z,17.70
2018-10-11T19:12:54.198Z,17.77
2018-10-11T19:15:22.569Z,18.30
2018-10-11T19:17:50.788Z,17.80
2018-10-11T19:20:19.009Z,17.40
2018-10-11T19:22:47.369Z,17.73
2018-10-11T19:25:15.755Z,17.42
2018-10-11T19:27:44.001Z,17.95
2018-10-11T19:30:12.501Z,18.48
2018-10-11T19:32:40.937Z,17.70
2018-10-11T19:35:09.436Z,18.70
2018-10-11T19:37:37.945Z,20.17
2018-10-11T19:40:06.230Z,18.23
2018-10-11T19:42:34.846Z,19.60
2018-10-11T19:45:03.160Z,19.40
2018-10-11T19:47:31.477Z,20.60
2018-10-11T19:49:59.749Z,20.50
2018-10-11T19:52:28.107Z,19.67
2018-10-11T19:54:56.399Z,19.67
2018-10-11T19:57:24.679Z,20.30
2018-10-11T19:59:54.058Z,19.98
2018-10-11T20:02:22.355Z,19.70
2018-10-11T20:04:50.694Z,20.75
2018-10-11T20:07:18.995Z,20.43
2018-10-11T20:09:47.385Z,21.60
2018-10-11T20:12:16.404Z,21.50
2018-10-11T20:14:44.709Z,22.10
2018-10-11T20:17:18.290Z,22.15
2018-10-11T20:19:46.643Z,22.85
2018-10-11T20:22:14.940Z,22.58
2018-10-11T20:27:20.921Z,23.25
2018-10-11T20:29:49.429Z,23.87
2018-10-11T20:32:17.759Z,23.50
2018-10-11T20:34:46.060Z,24.35
2018-10-11T20:37:14.802Z,22.22
2018-10-11T20:39:45.250Z,22.87
2018-10-11T20:42:14.299Z,23.70
2018-10-11T20:44:42.804Z,22.73
2018-10-11T20:47:11.156Z,23.80
2018-10-11T20:49:40.613Z,23.25
2018-10-11T20:52:10.366Z,22.75
2018-10-11T20:54:38.842Z,26.40
2018-10-11T20:57:07.408Z,24.20
2018-10-11T20:59:37.487Z,23.87
2018-10-11T21:02:06.726Z,25.12
2018-10-11T21:04:35.172Z,26.87
2018-10-11T21:07:04.588Z,25.50
2018-10-11T21:09:32.818Z,24.98
2018-10-11T21:12:01.325Z,24.95
2018-10-11T21:14:29.450Z,26.23
2018-10-11T21:16:57.835Z,24.82
2018-10-11T21:19:26.277Z,25.10
2018-10-11T21:21:54.622Z,25.27
2018-10-11T21:24:22.821Z,25.75
2018-10-11T21:26:51.286Z,25.10
2018-10-11T21:29:19.718Z,25.30
2018-10-11T21:31:47.965Z,26.40
2018-10-11T21:34:16.189Z,26.05
2018-10-11T21:36:44.462Z,24.23
2018-10-11T21:39:13.825Z,25.43
2018-10-11T21:41:42.330Z,26.15
2018-10-11T21:44:11.845Z,25.30
2018-10-11T21:46:40.251Z,25.85
2018-10-11T21:49:08.469Z,25.50
2018-10-11T21:51:37.462Z,24.75
2018-10-11T21:54:08.191Z,25.23
2018-10-11T21:56:36.540Z,25.17
2018-10-11T21:59:04.939Z,23.85
2018-10-11T22:01:33.114Z,26.62
2018-10-11T22:04:01.245Z,26.05
2018-10-11T22:06:29.427Z,25.60
2018-10-11T22:08:57.910Z,26.55
2018-10-11T22:11:26.124Z,26.35
2018-10-11T22:13:54.392Z,25.97
2018-10-11T22:16:22.533Z,25.80
2018-10-11T22:18:50.754Z,26.23
2018-10-11T22:21:19.019Z,27.67
2018-10-11T22:23:47.411Z,27.52
2018-10-11T22:26:15.605Z,26.12
2018-10-11T22:28:43.873Z,25.43
2018-10-11T22:31:13.222Z,26.50
2018-10-11T22:33:42.175Z,26.93
2018-10-11T22:36:11.205Z,27.93
2018-10-11T22:38:39.812Z,27.93
2018-10-11T22:41:08.369Z,26.02
2018-10-11T22:43:36.545Z,29.55
2018-10-11T22:46:04.925Z,28.17
2018-10-11T22:48:33.080Z,26.50
2018-10-11T22:51:01.405Z,28.32
2018-10-11T22:53:29.596Z,27.52
2018-10-11T22:55:57.918Z,26.48
2018-10-11T22:58:26.101Z,27.65
2018-10-11T23:00:54.428Z,25.85
2018-10-11T23:03:22.963Z,25.02
2018-10-11T23:05:51.244Z,27.75
2018-10-11T23:08:19.496Z,27.00
2018-10-11T23:10:47.688Z,25.68
2018-10-11T23:13:15.888Z,26.62
2018-10-11T23:15:44.119Z,26.85
2018-10-11T23:18:12.265Z,25.88
2018-10-11T23:20:40.510Z,25.90
2018-10-11T23:23:08.765Z,27.93
2018-10-11T23:25:36.983Z,25.90
2018-10-11T23:28:05.384Z,26.90
2018-10-11T23:30:33.565Z,25.43
2018-10-11T23:33:01.815Z,25.75
2018-10-11T23:35:30.069Z,25.97
2018-10-11T23:37:58.264Z,27.70
2018-10-11T23:40:26.812Z,27.75
2018-10-11T23:42:55.013Z,25.20
2018-10-11T23:45:23.206Z,27.90
2018-10-11T23:47:51.413Z,25.97
2018-10-11T23:50:19.647Z,26.75
2018-10-11T23:52:47.846Z,24.85
2018-10-11T23:55:16.073Z,26.68
2018-10-11T23:57:44.972Z,27.10
